sensor_id;sensor_type;location;lat;lon;timestamp;P1;durP1;ratioP1;P2;durP2;ratioP2
65924;SDS011;66010;52.084;5.412;2023-08-17T00:00:08;5.38;;;1.85;;
65924;SDS011;66010;52.084;5.412;2023-08-17T00:02:37;6.80;;;1.60;;
65924;SDS011;66010;52.084;5.412;2023-08-17T00:05:05;4.97;;;1.80;;
65924;SDS011;66010;52.084;5.412;2023-08-17T00:07:35;3.33;;;1.52;;
65924;SDS011;66010;52.084;5.412;2023-08-17T00:10:02;5.05;;;1.65;;
65924;SDS011;66010;52.084;5.412;2023-08-17T00:12:29;6.28;;;1.77;;
65924;SDS011;66010;52.084;5.412;2023-08-17T00:14:55;6.00;;;1.83;;
65924;SDS011;66010;52.084;5.412;2023-08-17T00:17:22;7.15;;;2.10;;
65924;SDS011;66010;52.084;5.412;2023-08-17T00:19:49;11.35;;;2.10;;
65924;SDS011;66010;52.084;5.412;2023-08-17T00:22:16;5.95;;;2.00;;
65924;SDS011;66010;52.084;5.412;2023-08-17T00:24:42;6.53;;;2.10;;
65924;SDS011;66010;52.084;5.412;2023-08-17T00:27:11;4.28;;;1.90;;
65924;SDS011;66010;52.084;5.412;2023-08-17T00:29:37;5.90;;;2.10;;
65924;SDS011;66010;52.084;5.412;2023-08-17T00:32:04;6.38;;;2.00;;
65924;SDS011;66010;52.084;5.412;2023-08-17T00:34:30;5.43;;;1.88;;
65924;SDS011;66010;52.084;5.412;2023-08-17T00:36:58;6.38;;;2.10;;
65924;SDS011;66010;52.084;5.412;2023-08-17T00:39:25;5.22;;;1.80;;
65924;SDS011;66010;52.084;5.412;2023-08-17T00:41:51;6.03;;;2.00;;
65924;SDS011;66010;52.084;5.412;2023-08-17T00:44:18;4.60;;;2.00;;
65924;SDS011;66010;52.084;5.412;2023-08-17T00:46:46;6.70;;;1.98;;
65924;SDS011;66010;52.084;5.412;2023-08-17T00:49:13;6.88;;;2.05;;
65924;SDS011;66010;52.084;5.412;2023-08-17T00:51:40;5.70;;;2.20;;
65924;SDS011;66010;52.084;5.412;2023-08-17T00:54:06;6.82;;;2.10;;
65924;SDS011;66010;52.084;5.412;2023-08-17T00:56:33;5.63;;;2.20;;
65924;SDS011;66010;52.084;5.412;2023-08-17T00:59:00;5.85;;;2.00;;
65924;SDS011;66010;52.084;5.412;2023-08-17T01:01:26;4.68;;;1.88;;
65924;SDS011;66010;52.084;5.412;2023-08-17T01:03:53;4.72;;;1.85;;
65924;SDS011;66010;52.084;5.412;2023-08-17T01:06:19;5.90;;;2.05;;
65924;SDS011;66010;52.084;5.412;2023-08-17T01:08:46;6.07;;;1.92;;
65924;SDS011;66010;52.084;5.412;2023-08-17T01:16:27;4.32;;;1.88;;
65924;SDS011;66010;52.084;5.412;2023-08-17T01:18:54;6.13;;;2.15;;
65924;SDS011;66010;52.084;5.412;2023-08-17T01:21:24;7.03;;;1.92;;
65924;SDS011;66010;52.084;5.412;2023-08-17T01:23:50;6.30;;;2.00;;
65924;SDS011;66010;52.084;5.412;2023-08-17T01:26:17;5.20;;;2.05;;
65924;SDS011;66010;52.084;5.412;2023-08-17T01:28:44;7.68;;;2.22;;
65924;SDS011;66010;52.084;5.412;2023-08-17T01:31:13;6.20;;;1.73;;
65924;SDS011;66010;52.084;5.412;2023-08-17T01:33:42;4.90;;;2.00;;
65924;SDS011;66010;52.084;5.412;2023-08-17T01:36:18;4.03;;;1.58;;
65924;SDS011;66010;52.084;5.412;2023-08-17T01:38:46;6.65;;;2.08;;
65924;SDS011;66010;52.084;5.412;2023-08-17T01:41:13;5.28;;;1.83;;
65924;SDS011;66010;52.084;5.412;2023-08-17T01:43:41;6.10;;;2.08;;
65924;SDS011;66010;52.084;5.412;2023-08-17T01:46:13;6.25;;;1.90;;
65924;SDS011;66010;52.084;5.412;2023-08-17T01:48:41;3.70;;;2.05;;
65924;SDS011;66010;52.084;5.412;2023-08-17T01:51:09;6.55;;;2.00;;
65924;SDS011;66010;52.084;5.412;2023-08-17T01:53:36;6.00;;;1.90;;
65924;SDS011;66010;52.084;5.412;2023-08-17T01:56:02;5.97;;;1.90;;
65924;SDS011;66010;52.084;5.412;2023-08-17T01:58:29;5.97;;;1.80;;
65924;SDS011;66010;52.084;5.412;2023-08-17T02:00:55;4.70;;;1.75;;
65924;SDS011;66010;52.084;5.412;2023-08-17T02:03:22;5.57;;;2.08;;
65924;SDS011;66010;52.084;5.412;2023-08-17T02:05:49;7.30;;;2.00;;
65924;SDS011;66010;52.084;5.412;2023-08-17T02:08:15;5.68;;;2.00;;
65924;SDS011;66010;52.084;5.412;2023-08-17T02:10:42;6.13;;;1.75;;
65924;SDS011;66010;52.084;5.412;2023-08-17T02:13:09;5.85;;;1.83;;
65924;SDS011;66010;52.084;5.412;2023-08-17T02:15:44;3.88;;;1.80;;
65924;SDS011;66010;52.084;5.412;2023-08-17T02:18:10;5.22;;;1.77;;
65924;SDS011;66010;52.084;5.412;2023-08-17T02:20:37;4.63;;;1.70;;
65924;SDS011;66010;52.084;5.412;2023-08-17T02:23:03;6.10;;;1.80;;
65924;SDS011;66010;52.084;5.412;2023-08-17T02:25:30;6.43;;;1.92;;
65924;SDS011;66010;52.084;5.412;2023-08-17T02:28:02;5.28;;;1.80;;
65924;SDS011;66010;52.084;5.412;2023-08-17T02:30:30;4.63;;;1.90;;
65924;SDS011;66010;52.084;5.412;2023-08-17T02:32:57;6.72;;;2.25;;
65924;SDS011;66010;52.084;5.412;2023-08-17T02:35:24;5.43;;;2.08;;
65924;SDS011;66010;52.084;5.412;2023-08-17T02:37:50;5.40;;;2.00;;
65924;SDS011;66010;52.084;5.412;2023-08-17T02:40:17;5.28;;;1.80;;
65924;SDS011;66010;52.084;5.412;2023-08-17T02:42:44;6.50;;;1.77;;
65924;SDS011;66010;52.084;5.412;2023-08-17T02:45:10;6.38;;;1.90;;
65924;SDS011;66010;52.084;5.412;2023-08-17T02:47:37;5.78;;;2.10;;
65924;SDS011;66010;52.084;5.412;2023-08-17T02:50:04;7.03;;;2.20;;
65924;SDS011;66010;52.084;5.412;2023-08-17T02:52:31;5.88;;;1.90;;
65924;SDS011;66010;52.084;5.412;2023-08-17T02:54:58;6.95;;;1.90;;
65924;SDS011;66010;52.084;5.412;2023-08-17T02:57:25;6.80;;;1.98;;
65924;SDS011;66010;52.084;5.412;2023-08-17T02:59:52;5.70;;;1.80;;
65924;SDS011;66010;52.084;5.412;2023-08-17T03:02:19;6.25;;;2.10;;
65924;SDS011;66010;52.084;5.412;2023-08-17T03:04:45;5.68;;;2.00;;
65924;SDS011;66010;52.084;5.412;2023-08-17T03:07:11;5.95;;;2.15;;
65924;SDS011;66010;52.084;5.412;2023-08-17T03:09:38;6.18;;;1.80;;
65924;SDS011;66010;52.084;5.412;2023-08-17T03:12:05;5.80;;;2.10;;
65924;SDS011;66010;52.084;5.412;2023-08-17T03:14:31;8.75;;;2.10;;
65924;SDS011;66010;52.084;5.412;2023-08-17T03:16:58;5.00;;;2.08;;
65924;SDS011;66010;52.084;5.412;2023-08-17T03:19:25;6.53;;;1.95;;
65924;SDS011;66010;52.084;5.412;2023-08-17T03:21:51;5.40;;;2.10;;
65924;SDS011;66010;52.084;5.412;2023-08-17T03:24:18;6.45;;;1.92;;
65924;SDS011;66010;52.084;5.412;2023-08-17T03:26:45;6.47;;;2.08;;
65924;SDS011;66010;52.084;5.412;2023-08-17T03:29:12;4.90;;;1.85;;
65924;SDS011;66010;52.084;5.412;2023-08-17T03:31:38;6.35;;;2.00;;
65924;SDS011;66010;52.084;5.412;2023-08-17T03:34:07;7.47;;;2.08;;
65924;SDS011;66010;52.084;5.412;2023-08-17T03:36:33;5.55;;;2.05;;
65924;SDS011;66010;52.084;5.412;2023-08-17T03:39:00;6.40;;;1.90;;
65924;SDS011;66010;52.084;5.412;2023-08-17T03:41:27;5.80;;;1.80;;
65924;SDS011;66010;52.084;5.412;2023-08-17T03:43:53;4.93;;;1.92;;
65924;SDS011;66010;52.084;5.412;2023-08-17T03:46:20;8.05;;;2.20;;
65924;SDS011;66010;52.084;5.412;2023-08-17T03:48:46;6.20;;;1.92;;
65924;SDS011;66010;52.084;5.412;2023-08-17T03:51:13;5.28;;;1.90;;
65924;SDS011;66010;52.084;5.412;2023-08-17T03:53:39;5.60;;;2.10;;
65924;SDS011;66010;52.084;5.412;2023-08-17T03:56:06;7.25;;;2.17;;
65924;SDS011;66010;52.084;5.412;2023-08-17T03:58:33;4.72;;;1.92;;
65924;SDS011;66010;52.084;5.412;2023-08-17T04:01:01;6.15;;;1.80;;
65924;SDS011;66010;52.084;5.412;2023-08-17T04:03:29;5.32;;;2.03;;
65924;SDS011;66010;52.084;5.412;2023-08-17T04:05:56;7.30;;;1.90;;
65924;SDS011;66010;52.084;5.412;2023-08-17T04:08:23;7.20;;;2.22;;
65924;SDS011;66010;52.084;5.412;2023-08-17T04:10:49;6.57;;;1.83;;
65924;SDS011;66010;52.084;5.412;2023-08-17T04:13:16;5.75;;;2.00;;
65924;SDS011;66010;52.084;5.412;2023-08-17T04:15:42;6.55;;;2.10;;
65924;SDS011;66010;52.084;5.412;2023-08-17T04:18:09;6.43;;;2.00;;
65924;SDS011;66010;52.084;5.412;2023-08-17T04:20:35;4.85;;;1.77;;
65924;SDS011;66010;52.084;5.412;2023-08-17T04:23:02;8.73;;;2.10;;
65924;SDS011;66010;52.084;5.412;2023-08-17T04:25:28;6.07;;;2.10;;
65924;SDS011;66010;52.084;5.412;2023-08-17T04:27:55;4.80;;;1.63;;
65924;SDS011;66010;52.084;5.412;2023-08-17T04:30:22;3.88;;;1.77;;
65924;SDS011;66010;52.084;5.412;2023-08-17T04:32:55;7.30;;;2.00;;
65924;SDS011;66010;52.084;5.412;2023-08-17T04:35:22;5.93;;;1.83;;
65924;SDS011;66010;52.084;5.412;2023-08-17T04:37:48;6.05;;;1.63;;
65924;SDS011;66010;52.084;5.412;2023-08-17T04:40:15;7.85;;;2.30;;
65924;SDS011;66010;52.084;5.412;2023-08-17T04:42:42;7.93;;;1.75;;
65924;SDS011;66010;52.084;5.412;2023-08-17T04:47:39;5.97;;;2.00;;
65924;SDS011;66010;52.084;5.412;2023-08-17T04:50:06;6.88;;;2.13;;
65924;SDS011;66010;52.084;5.412;2023-08-17T04:52:33;4.30;;;1.70;;
65924;SDS011;66010;52.084;5.412;2023-08-17T04:55:01;5.68;;;1.63;;
65924;SDS011;66010;52.084;5.412;2023-08-17T04:57:30;6.32;;;2.00;;
65924;SDS011;66010;52.084;5.412;2023-08-17T04:59:57;5.50;;;1.85;;
65924;SDS011;66010;52.084;5.412;2023-08-17T05:02:23;5.85;;;1.60;;
65924;SDS011;66010;52.084;5.412;2023-08-17T05:04:51;7.85;;;2.00;;
65924;SDS011;66010;52.084;5.412;2023-08-17T05:07:18;6.07;;;1.90;;
65924;SDS011;66010;52.084;5.412;2023-08-17T05:09:45;5.07;;;1.67;;
65924;SDS011;66010;52.084;5.412;2023-08-17T05:12:11;2.78;;;1.60;;
65924;SDS011;66010;52.084;5.412;2023-08-17T05:14:39;6.53;;;1.83;;
65924;SDS011;66010;52.084;5.412;2023-08-17T05:17:06;4.20;;;1.67;;
65924;SDS011;66010;52.084;5.412;2023-08-17T05:19:32;5.43;;;1.70;;
65924;SDS011;66010;52.084;5.412;2023-08-17T05:21:59;6.28;;;1.80;;
65924;SDS011;66010;52.084;5.412;2023-08-17T05:24:26;4.07;;;1.50;;
65924;SDS011;66010;52.084;5.412;2023-08-17T05:26:53;5.13;;;1.63;;
65924;SDS011;66010;52.084;5.412;2023-08-17T05:29:20;5.88;;;1.60;;
65924;SDS011;66010;52.084;5.412;2023-08-17T05:31:46;4.85;;;1.45;;
65924;SDS011;66010;52.084;5.412;2023-08-17T05:34:13;6.60;;;1.70;;
65924;SDS011;66010;52.084;5.412;2023-08-17T05:36:40;5.55;;;1.60;;
65924;SDS011;66010;52.084;5.412;2023-08-17T05:41:34;4.93;;;1.50;;
65924;SDS011;66010;52.084;5.412;2023-08-17T05:44:00;4.65;;;1.48;;
65924;SDS011;66010;52.084;5.412;2023-08-17T05:46:27;5.72;;;1.80;;
65924;SDS011;66010;52.084;5.412;2023-08-17T05:48:53;6.60;;;1.70;;
65924;SDS011;66010;52.084;5.412;2023-08-17T05:51:20;4.75;;;1.80;;
65924;SDS011;66010;52.084;5.412;2023-08-17T05:53:46;3.08;;;1.45;;
65924;SDS011;66010;52.084;5.412;2023-08-17T05:56:13;3.92;;;1.50;;
65924;SDS011;66010;52.084;5.412;2023-08-17T05:58:39;6.07;;;1.58;;
65924;SDS011;66010;52.084;5.412;2023-08-17T06:01:07;5.75;;;1.55;;
65924;SDS011;66010;52.084;5.412;2023-08-17T06:03:34;6.05;;;1.80;;
65924;SDS011;66010;52.084;5.412;2023-08-17T06:08:28;7.20;;;1.52;;
65924;SDS011;66010;52.084;5.412;2023-08-17T06:10:55;3.25;;;1.38;;
65924;SDS011;66010;52.084;5.412;2023-08-17T06:13:22;4.72;;;1.50;;
65924;SDS011;66010;52.084;5.412;2023-08-17T06:15:49;4.18;;;1.55;;
65924;SDS011;66010;52.084;5.412;2023-08-17T06:18:15;4.00;;;1.50;;
65924;SDS011;66010;52.084;5.412;2023-08-17T06:20:42;4.47;;;1.35;;
65924;SDS011;66010;52.084;5.412;2023-08-17T06:23:08;3.55;;;1.30;;
65924;SDS011;66010;52.084;5.412;2023-08-17T06:25:35;2.83;;;1.10;;
65924;SDS011;66010;52.084;5.412;2023-08-17T06:28:01;5.03;;;1.33;;
65924;SDS011;66010;52.084;5.412;2023-08-17T06:30:28;2.72;;;1.30;;
65924;SDS011;66010;52.084;5.412;2023-08-17T06:32:55;4.88;;;1.50;;
65924;SDS011;66010;52.084;5.412;2023-08-17T06:35:22;3.63;;;1.40;;
65924;SDS011;66010;52.084;5.412;2023-08-17T06:37:48;4.15;;;1.23;;
65924;SDS011;66010;52.084;5.412;2023-08-17T06:40:15;5.32;;;1.48;;
65924;SDS011;66010;52.084;5.412;2023-08-17T06:42:41;3.42;;;1.40;;
65924;SDS011;66010;52.084;5.412;2023-08-17T06:45:08;5.10;;;1.40;;
65924;SDS011;66010;52.084;5.412;2023-08-17T06:47:34;8.88;;;1.55;;
65924;SDS011;66010;52.084;5.412;2023-08-17T06:50:01;4.85;;;1.50;;
65924;SDS011;66010;52.084;5.412;2023-08-17T06:52:27;3.85;;;1.60;;
65924;SDS011;66010;52.084;5.412;2023-08-17T06:54:54;7.10;;;2.00;;
65924;SDS011;66010;52.084;5.412;2023-08-17T06:57:21;5.40;;;1.77;;
65924;SDS011;66010;52.084;5.412;2023-08-17T06:59:48;4.35;;;1.67;;
65924;SDS011;66010;52.084;5.412;2023-08-17T07:02:14;4.00;;;1.38;;
65924;SDS011;66010;52.084;5.412;2023-08-17T07:04:41;4.55;;;1.70;;
65924;SDS011;66010;52.084;5.412;2023-08-17T07:07:07;5.18;;;1.50;;
65924;SDS011;66010;52.084;5.412;2023-08-17T07:09:34;3.70;;;1.50;;
65924;SDS011;66010;52.084;5.412;2023-08-17T07:12:00;7.40;;;1.70;;
65924;SDS011;66010;52.084;5.412;2023-08-17T07:14:27;7.47;;;1.80;;
65924;SDS011;66010;52.084;5.412;2023-08-17T07:16:54;7.82;;;1.70;;
65924;SDS011;66010;52.084;5.412;2023-08-17T07:19:21;4.80;;;1.70;;
65924;SDS011;66010;52.084;5.412;2023-08-17T07:22:01;4.25;;;1.65;;
65924;SDS011;66010;52.084;5.412;2023-08-17T07:24:28;4.28;;;1.60;;
65924;SDS011;66010;52.084;5.412;2023-08-17T07:26:54;11.00;;;2.10;;
65924;SDS011;66010;52.084;5.412;2023-08-17T07:29:21;9.77;;;1.73;;
65924;SDS011;66010;52.084;5.412;2023-08-17T07:31:48;5.50;;;1.65;;
65924;SDS011;66010;52.084;5.412;2023-08-17T07:34:15;9.00;;;1.77;;
65924;SDS011;66010;52.084;5.412;2023-08-17T07:36:43;5.43;;;1.70;;
65924;SDS011;66010;52.084;5.412;2023-08-17T07:39:10;7.30;;;1.92;;
65924;SDS011;66010;52.084;5.412;2023-08-17T07:41:37;6.75;;;2.00;;
65924;SDS011;66010;52.084;5.412;2023-08-17T07:44:03;7.80;;;1.90;;
65924;SDS011;66010;52.084;5.412;2023-08-17T07:46:30;6.13;;;2.00;;
65924;SDS011;66010;52.084;5.412;2023-08-17T07:48:57;5.28;;;1.80;;
65924;SDS011;66010;52.084;5.412;2023-08-17T07:51:23;5.80;;;1.95;;
65924;SDS011;66010;52.084;5.412;2023-08-17T07:53:50;6.13;;;1.77;;
65924;SDS011;66010;52.084;5.412;2023-08-17T07:56:17;5.30;;;1.73;;
65924;SDS011;66010;52.084;5.412;2023-08-17T07:58:43;5.43;;;1.90;;
65924;SDS011;66010;52.084;5.412;2023-08-17T08:01:10;6.90;;;2.05;;
65924;SDS011;66010;52.084;5.412;2023-08-17T08:03:36;6.63;;;2.05;;
65924;SDS011;66010;52.084;5.412;2023-08-17T08:06:03;9.57;;;2.20;;
65924;SDS011;66010;52.084;5.412;2023-08-17T08:08:29;5.78;;;1.90;;
65924;SDS011;66010;52.084;5.412;2023-08-17T08:10:56;5.35;;;1.63;;
65924;SDS011;66010;52.084;5.412;2023-08-17T08:13:22;5.85;;;1.90;;
65924;SDS011;66010;52.084;5.412;2023-08-17T08:15:49;6.22;;;2.08;;
65924;SDS011;66010;52.084;5.412;2023-08-17T08:18:16;5.40;;;2.10;;
65924;SDS011;66010;52.084;5.412;2023-08-17T08:20:42;7.28;;;2.50;;
65924;SDS011;66010;52.084;5.412;2023-08-17T08:23:09;7.57;;;1.92;;
65924;SDS011;66010;52.084;5.412;2023-08-17T08:25:36;7.15;;;2.22;;
65924;SDS011;66010;52.084;5.412;2023-08-17T08:28:02;5.10;;;1.80;;
65924;SDS011;66010;52.084;5.412;2023-08-17T08:30:29;4.72;;;1.92;;
65924;SDS011;66010;52.084;5.412;2023-08-17T08:32:57;5.90;;;1.85;;
65924;SDS011;66010;52.084;5.412;2023-08-17T08:35:25;4.50;;;1.90;;
65924;SDS011;66010;52.084;5.412;2023-08-17T08:37:52;7.00;;;2.05;;
65924;SDS011;66010;52.084;5.412;2023-08-17T08:40:19;7.85;;;1.98;;
65924;SDS011;66010;52.084;5.412;2023-08-17T08:42:46;5.68;;;2.17;;
65924;SDS011;66010;52.084;5.412;2023-08-17T08:45:13;8.60;;;2.10;;
65924;SDS011;66010;52.084;5.412;2023-08-17T08:47:39;6.05;;;2.00;;
65924;SDS011;66010;52.084;5.412;2023-08-17T08:50:08;7.03;;;2.13;;
65924;SDS011;66010;52.084;5.412;2023-08-17T08:52:35;7.50;;;2.05;;
65924;SDS011;66010;52.084;5.412;2023-08-17T08:55:06;8.48;;;2.00;;
65924;SDS011;66010;52.084;5.412;2023-08-17T08:57:35;6.15;;;2.00;;
65924;SDS011;66010;52.084;5.412;2023-08-17T09:00:03;8.35;;;2.00;;
65924;SDS011;66010;52.084;5.412;2023-08-17T09:04:56;7.60;;;2.47;;
65924;SDS011;66010;52.084;5.412;2023-08-17T09:07:23;6.95;;;2.00;;
65924;SDS011;66010;52.084;5.412;2023-08-17T09:09:50;6.70;;;2.10;;
65924;SDS011;66010;52.084;5.412;2023-08-17T09:12:18;5.20;;;1.80;;
65924;SDS011;66010;52.084;5.412;2023-08-17T09:15:04;8.05;;;2.33;;
65924;SDS011;66010;52.084;5.412;2023-08-17T09:17:31;4.82;;;1.75;;
65924;SDS011;66010;52.084;5.412;2023-08-17T09:20:00;5.10;;;1.95;;
65924;SDS011;66010;52.084;5.412;2023-08-17T09:22:43;6.53;;;1.67;;
65924;SDS011;66010;52.084;5.412;2023-08-17T09:25:21;5.72;;;1.90;;
65924;SDS011;66010;52.084;5.412;2023-08-17T09:27:48;5.65;;;2.00;;
65924;SDS011;66010;52.084;5.412;2023-08-17T09:30:15;7.47;;;2.10;;
65924;SDS011;66010;52.084;5.412;2023-08-17T09:32:46;6.47;;;1.92;;
65924;SDS011;66010;52.084;5.412;2023-08-17T09:35:14;7.38;;;1.90;;
65924;SDS011;66010;52.084;5.412;2023-08-17T09:37:40;6.15;;;1.92;;
65924;SDS011;66010;52.084;5.412;2023-08-17T09:40:07;6.10;;;1.90;;
65924;SDS011;66010;52.084;5.412;2023-08-17T09:42:35;7.00;;;2.30;;
65924;SDS011;66010;52.084;5.412;2023-08-17T09:45:02;6.07;;;2.20;;
65924;SDS011;66010;52.084;5.412;2023-08-17T09:47:29;7.65;;;2.20;;
65924;SDS011;66010;52.084;5.412;2023-08-17T09:49:55;9.00;;;2.55;;
65924;SDS011;66010;52.084;5.412;2023-08-17T09:52:22;6.57;;;2.60;;
65924;SDS011;66010;52.084;5.412;2023-08-17T09:54:51;11.38;;;2.65;;
65924;SDS011;66010;52.084;5.412;2023-08-17T09:57:18;7.40;;;3.53;;
65924;SDS011;66010;52.084;5.412;2023-08-17T09:59:48;7.57;;;2.55;;
65924;SDS011;66010;52.084;5.412;2023-08-17T10:02:22;7.22;;;2.55;;
65924;SDS011;66010;52.084;5.412;2023-08-17T10:04:51;12.25;;;3.08;;
65924;SDS011;66010;52.084;5.412;2023-08-17T10:07:19;9.95;;;2.90;;
65924;SDS011;66010;52.084;5.412;2023-08-17T10:09:50;6.65;;;2.50;;
65924;SDS011;66010;52.084;5.412;2023-08-17T10:12:19;9.15;;;3.20;;
65924;SDS011;66010;52.084;5.412;2023-08-17T10:14:53;8.80;;;2.78;;
65924;SDS011;66010;52.084;5.412;2023-08-17T10:17:21;7.85;;;2.63;;
65924;SDS011;66010;52.084;5.412;2023-08-17T10:19:52;9.50;;;2.72;;
65924;SDS011;66010;52.084;5.412;2023-08-17T10:22:56;8.27;;;3.00;;
65924;SDS011;66010;52.084;5.412;2023-08-17T10:25:13;8.77;;;3.10;;
65924;SDS011;66010;52.084;5.412;2023-08-17T10:27:40;8.13;;;2.70;;
65924;SDS011;66010;52.084;5.412;2023-08-17T10:30:08;8.00;;;2.80;;
65924;SDS011;66010;52.084;5.412;2023-08-17T10:32:35;11.13;;;2.78;;
65924;SDS011;66010;52.084;5.412;2023-08-17T10:35:02;7.07;;;2.50;;
65924;SDS011;66010;52.084;5.412;2023-08-17T10:37:29;8.82;;;3.13;;
65924;SDS011;66010;52.084;5.412;2023-08-17T10:39:57;7.22;;;2.75;;
65924;SDS011;66010;52.084;5.412;2023-08-17T10:42:34;8.70;;;2.85;;
65924;SDS011;66010;52.084;5.412;2023-08-17T10:45:04;8.88;;;2.80;;
65924;SDS011;66010;52.084;5.412;2023-08-17T10:47:48;7.22;;;2.70;;
65924;SDS011;66010;52.084;5.412;2023-08-17T10:50:24;9.70;;;2.60;;
65924;SDS011;66010;52.084;5.412;2023-08-17T10:52:52;7.03;;;2.50;;
65924;SDS011;66010;52.084;5.412;2023-08-17T10:55:42;8.43;;;3.00;;
65924;SDS011;66010;52.084;5.412;2023-08-17T10:58:07;7.38;;;2.50;;
65924;SDS011;66010;52.084;5.412;2023-08-17T11:00:41;7.00;;;2.70;;
65924;SDS011;66010;52.084;5.412;2023-08-17T11:03:09;7.25;;;2.40;;
65924;SDS011;66010;52.084;5.412;2023-08-17T11:05:40;8.73;;;2.90;;
65924;SDS011;66010;52.084;5.412;2023-08-17T11:08:08;8.82;;;2.80;;
65924;SDS011;66010;52.084;5.412;2023-08-17T11:10:36;9.55;;;3.17;;
65924;SDS011;66010;52.084;5.412;2023-08-17T11:13:02;10.15;;;3.10;;
65924;SDS011;66010;52.084;5.412;2023-08-17T11:15:42;7.95;;;2.85;;
65924;SDS011;66010;52.084;5.412;2023-08-17T11:18:09;7.97;;;2.83;;
65924;SDS011;66010;52.084;5.412;2023-08-17T11:23:05;7.60;;;2.60;;
65924;SDS011;66010;52.084;5.412;2023-08-17T11:25:32;10.18;;;3.05;;
65924;SDS011;66010;52.084;5.412;2023-08-17T11:27:59;8.07;;;2.90;;
65924;SDS011;66010;52.084;5.412;2023-08-17T11:30:26;9.73;;;3.38;;
65924;SDS011;66010;52.084;5.412;2023-08-17T11:32:54;7.78;;;2.80;;
65924;SDS011;66010;52.084;5.412;2023-08-17T11:35:21;8.27;;;3.42;;
65924;SDS011;66010;52.084;5.412;2023-08-17T11:37:48;9.52;;;2.92;;
65924;SDS011;66010;52.084;5.412;2023-08-17T11:40:15;7.53;;;2.90;;
65924;SDS011;66010;52.084;5.412;2023-08-17T11:42:42;9.32;;;2.90;;
65924;SDS011;66010;52.084;5.412;2023-08-17T11:45:09;7.93;;;2.90;;
65924;SDS011;66010;52.084;5.412;2023-08-17T11:47:36;9.48;;;2.92;;
65924;SDS011;66010;52.084;5.412;2023-08-17T11:50:04;8.70;;;3.20;;
65924;SDS011;66010;52.084;5.412;2023-08-17T11:52:46;7.53;;;2.60;;
65924;SDS011;66010;52.084;5.412;2023-08-17T11:55:15;8.75;;;2.92;;
65924;SDS011;66010;52.084;5.412;2023-08-17T11:57:43;11.00;;;3.13;;
65924;SDS011;66010;52.084;5.412;2023-08-17T12:00:16;7.40;;;2.90;;
65924;SDS011;66010;52.084;5.412;2023-08-17T12:02:42;7.78;;;3.05;;
65924;SDS011;66010;52.084;5.412;2023-08-17T12:05:11;8.57;;;2.53;;
65924;SDS011;66010;52.084;5.412;2023-08-17T12:07:38;6.30;;;2.60;;
65924;SDS011;66010;52.084;5.412;2023-08-17T12:10:05;8.80;;;3.20;;
65924;SDS011;66010;52.084;5.412;2023-08-17T12:12:35;7.55;;;2.85;;
65924;SDS011;66010;52.084;5.412;2023-08-17T12:15:03;8.02;;;2.85;;
65924;SDS011;66010;52.084;5.412;2023-08-17T12:17:30;10.10;;;2.63;;
65924;SDS011;66010;52.084;5.412;2023-08-17T12:19:58;8.18;;;3.33;;
65924;SDS011;66010;52.084;5.412;2023-08-17T12:22:25;7.72;;;3.03;;
65924;SDS011;66010;52.084;5.412;2023-08-17T12:24:55;9.07;;;2.60;;
65924;SDS011;66010;52.084;5.412;2023-08-17T12:27:22;8.77;;;3.25;;
65924;SDS011;66010;52.084;5.412;2023-08-17T12:29:51;9.07;;;3.67;;
65924;SDS011;66010;52.084;5.412;2023-08-17T12:32:18;9.18;;;3.53;;
65924;SDS011;66010;52.084;5.412;2023-08-17T12:34:45;8.90;;;3.20;;
65924;SDS011;66010;52.084;5.412;2023-08-17T12:37:17;7.65;;;3.13;;
65924;SDS011;66010;52.084;5.412;2023-08-17T12:39:44;10.43;;;2.80;;
65924;SDS011;66010;52.084;5.412;2023-08-17T12:42:11;9.57;;;3.15;;
65924;SDS011;66010;52.084;5.412;2023-08-17T12:44:38;7.85;;;2.67;;
65924;SDS011;66010;52.084;5.412;2023-08-17T12:47:04;8.50;;;3.30;;
65924;SDS011;66010;52.084;5.412;2023-08-17T12:49:31;7.93;;;3.20;;
65924;SDS011;66010;52.084;5.412;2023-08-17T12:51:57;9.60;;;2.97;;
65924;SDS011;66010;52.084;5.412;2023-08-17T12:54:24;7.22;;;2.72;;
65924;SDS011;66010;52.084;5.412;2023-08-17T12:56:50;7.35;;;2.85;;
65924;SDS011;66010;52.084;5.412;2023-08-17T12:59:17;7.53;;;3.10;;
65924;SDS011;66010;52.084;5.412;2023-08-17T13:01:43;7.13;;;2.72;;
65924;SDS011;66010;52.084;5.412;2023-08-17T13:04:10;7.68;;;2.45;;
65924;SDS011;66010;52.084;5.412;2023-08-17T13:06:37;6.57;;;2.33;;
65924;SDS011;66010;52.084;5.412;2023-08-17T13:09:15;7.78;;;2.60;;
65924;SDS011;66010;52.084;5.412;2023-08-17T13:11:42;6.97;;;2.50;;
65924;SDS011;66010;52.084;5.412;2023-08-17T13:14:09;6.30;;;2.58;;
65924;SDS011;66010;52.084;5.412;2023-08-17T13:16:36;6.22;;;2.35;;
65924;SDS011;66010;52.084;5.412;2023-08-17T13:19:02;5.93;;;2.30;;
65924;SDS011;66010;52.084;5.412;2023-08-17T13:21:29;5.70;;;2.22;;
65924;SDS011;66010;52.084;5.412;2023-08-17T13:23:55;5.40;;;2.30;;
65924;SDS011;66010;52.084;5.412;2023-08-17T13:26:22;5.40;;;2.45;;
65924;SDS011;66010;52.084;5.412;2023-08-17T13:28:49;5.75;;;2.30;;
65924;SDS011;66010;52.084;5.412;2023-08-17T13:31:15;6.60;;;2.38;;
65924;SDS011;66010;52.084;5.412;2023-08-17T13:33:50;5.50;;;2.30;;
65924;SDS011;66010;52.084;5.412;2023-08-17T13:38:44;6.05;;;2.47;;
65924;SDS011;66010;52.084;5.412;2023-08-17T13:43:38;7.00;;;2.20;;
65924;SDS011;66010;52.084;5.412;2023-08-17T13:46:04;5.35;;;2.28;;
65924;SDS011;66010;52.084;5.412;2023-08-17T13:48:31;7.30;;;2.38;;
65924;SDS011;66010;52.084;5.412;2023-08-17T13:50:58;6.63;;;2.38;;
65924;SDS011;66010;52.084;5.412;2023-08-17T13:53:24;6.75;;;2.47;;
65924;SDS011;66010;52.084;5.412;2023-08-17T13:55:51;6.50;;;2.78;;
65924;SDS011;66010;52.084;5.412;2023-08-17T13:58:18;4.95;;;2.25;;
65924;SDS011;66010;52.084;5.412;2023-08-17T14:00:44;4.85;;;2.25;;
65924;SDS011;66010;52.084;5.412;2023-08-17T14:03:11;6.75;;;2.20;;
65924;SDS011;66010;52.084;5.412;2023-08-17T14:05:38;5.10;;;2.20;;
65924;SDS011;66010;52.084;5.412;2023-08-17T14:08:04;5.00;;;2.28;;
65924;SDS011;66010;52.084;5.412;2023-08-17T14:10:31;6.85;;;2.50;;
65924;SDS011;66010;52.084;5.412;2023-08-17T14:13:05;6.07;;;2.42;;
65924;SDS011;66010;52.084;5.412;2023-08-17T14:15:32;6.53;;;2.22;;
65924;SDS011;66010;52.084;5.412;2023-08-17T14:17:58;7.55;;;2.47;;
65924;SDS011;66010;52.084;5.412;2023-08-17T14:20:25;6.00;;;2.40;;
65924;SDS011;66010;52.084;5.412;2023-08-17T14:22:52;5.57;;;2.47;;
65924;SDS011;66010;52.084;5.412;2023-08-17T14:25:18;4.95;;;2.35;;
65924;SDS011;66010;52.084;5.412;2023-08-17T14:27:45;10.70;;;4.05;;
65924;SDS011;66010;52.084;5.412;2023-08-17T14:30:12;11.52;;;6.15;;
65924;SDS011;66010;52.084;5.412;2023-08-17T14:32:39;15.40;;;6.85;;
65924;SDS011;66010;52.084;5.412;2023-08-17T14:35:05;19.13;;;8.40;;
65924;SDS011;66010;52.084;5.412;2023-08-17T14:37:37;20.05;;;8.45;;
65924;SDS011;66010;52.084;5.412;2023-08-17T14:40:04;17.48;;;7.75;;
65924;SDS011;66010;52.084;5.412;2023-08-17T14:42:31;17.67;;;7.53;;
65924;SDS011;66010;52.084;5.412;2023-08-17T14:44:57;14.57;;;6.88;;
65924;SDS011;66010;52.084;5.412;2023-08-17T14:47:24;14.77;;;6.82;;
65924;SDS011;66010;52.084;5.412;2023-08-17T14:49:51;15.10;;;6.70;;
65924;SDS011;66010;52.084;5.412;2023-08-17T14:52:19;12.05;;;5.55;;
65924;SDS011;66010;52.084;5.412;2023-08-17T14:54:46;15.85;;;5.80;;
65924;SDS011;66010;52.084;5.412;2023-08-17T14:57:13;10.85;;;4.93;;
65924;SDS011;66010;52.084;5.412;2023-08-17T14:59:39;10.18;;;4.43;;
65924;SDS011;66010;52.084;5.412;2023-08-17T15:02:06;11.75;;;4.97;;
65924;SDS011;66010;52.084;5.412;2023-08-17T15:04:32;10.07;;;4.40;;
65924;SDS011;66010;52.084;5.412;2023-08-17T15:07:01;10.68;;;4.38;;
65924;SDS011;66010;52.084;5.412;2023-08-17T15:09:28;8.95;;;4.07;;